Albion, IA

8:17 AM CST on November 26, 2014 (GMT -0600)
Newton Municipal | Change Station
CLOSE
Current Station
Airport
Location: Newton,
Elevation: 951 ft
Nearby Weather Stations
Active Advisory: Winter Weather Advisory

Elev 951 ft 41.67 °N, 93.02 °W | Updated 22 minutes ago

Snow
Snow
28 °F
Feels Like 18 °F
N
14
Wind Variable Wind from East

Today
High -- | Low -- °F
--% Chance of Precip.
Yesterday
High -- | Low -- °F
Precip. -- in
7:15 AM 4:43 PM
Waxing Crescent, 20% visible
Pressure 29.91 in
Visibility 6.0 miles
Clouds Scattered Clouds 1600 ft
Mostly Cloudy 3000 ft
Overcast 5000 ft
Windchill 18 °F
Dew Point 25 °F
Humidity 86%
Rainfall 0.00 in
Snow Depth Not available.
UV 0 out of 12
Pollen .10 out of 12
Air Quality Not available.
Flu Activity Not available.
METAR KTNU 261355Z AUTO 10012KT 6SM BR SCT016 BKN030 OVC050 M02/M04 A2991 RMK AO2

More Conditions Fewer Conditions

Pressure 29.91 in
Visibility 6.0 miles
Clouds Scattered Clouds 1600 ft
Mostly Cloudy 3000 ft
Overcast 5000 ft
Windchill 18 °F
Dew Point 25 °F
Humidity 86%
Rainfall 0.00 in
Snow Depth Not available.
UV 0 out of 12
Pollen .10 out of 12
Air Quality Not available.
Flu Activity Not available.
METAR KTNU 261355Z AUTO 10012KT 6SM BR SCT016 BKN030 OVC050 M02/M04 A2991 RMK AO2

More Conditions Fewer Conditions

10-Day Weather Forecast

Almanac

Astronomy

Nov. 26, 2014 Rise Set
Actual Time
Civil Twilight
Nautical Twilight
Astronomical Twilight
Moon
Length of Visible Light
Length of Day
Tomorrow will be .
, % of the Moon is Illuminated

Today's Extremes

State Highs State Lows

Community

WunderPhotos

Upload Photos

1,773,751 photos uploaded!

WunderBlogs® & News

Nearby

Air Quality

  Air Quality AQ Index Pollutant
Not available.

Snow Depth

Station Depth Elevation

Earthquake Activity

City Distance Mag. Time & Date
Minimum magnitude displayed is 2.5.

Coastal Water Temperatures

Place Temperature

Nearby Weather Stations